sensor_id;sensor_type;location;lat;lon;timestamp;P1;durP1;ratioP1;P2;durP2;ratioP2
26750;SDS011;14345;48.272;25.926;2023-09-19T00:00:36;6.00;;;4.60;;
26750;SDS011;14345;48.272;25.926;2023-09-19T00:03:02;9.05;;;4.65;;
26750;SDS011;14345;48.272;25.926;2023-09-19T00:05:29;6.07;;;4.43;;
26750;SDS011;14345;48.272;25.926;2023-09-19T00:08:00;6.72;;;4.32;;
26750;SDS011;14345;48.272;25.926;2023-09-19T00:10:26;6.40;;;4.30;;
26750;SDS011;14345;48.272;25.926;2023-09-19T00:12:56;6.30;;;4.20;;
26750;SDS011;14345;48.272;25.926;2023-09-19T00:15:24;6.97;;;4.22;;
26750;SDS011;14345;48.272;25.926;2023-09-19T00:17:51;10.80;;;4.50;;
26750;SDS011;14345;48.272;25.926;2023-09-19T00:20:17;9.02;;;4.38;;
26750;SDS011;14345;48.272;25.926;2023-09-19T00:22:43;7.43;;;4.68;;
26750;SDS011;14345;48.272;25.926;2023-09-19T00:25:10;7.82;;;4.55;;
26750;SDS011;14345;48.272;25.926;2023-09-19T00:27:39;6.43;;;4.95;;
26750;SDS011;14345;48.272;25.926;2023-09-19T00:30:09;9.55;;;5.18;;
26750;SDS011;14345;48.272;25.926;2023-09-19T00:32:44;8.88;;;5.88;;
26750;SDS011;14345;48.272;25.926;2023-09-19T00:35:12;10.60;;;7.18;;
26750;SDS011;14345;48.272;25.926;2023-09-19T00:37:40;13.88;;;7.50;;
26750;SDS011;14345;48.272;25.926;2023-09-19T00:40:06;10.98;;;7.20;;
26750;SDS011;14345;48.272;25.926;2023-09-19T00:42:36;8.48;;;6.00;;
26750;SDS011;14345;48.272;25.926;2023-09-19T00:45:03;7.55;;;5.28;;
26750;SDS011;14345;48.272;25.926;2023-09-19T00:47:29;7.78;;;5.15;;
26750;SDS011;14345;48.272;25.926;2023-09-19T00:49:55;7.63;;;4.93;;
26750;SDS011;14345;48.272;25.926;2023-09-19T00:52:21;8.25;;;4.38;;
26750;SDS011;14345;48.272;25.926;2023-09-19T00:54:49;6.22;;;4.60;;
26750;SDS011;14345;48.272;25.926;2023-09-19T00:57:15;6.43;;;4.20;;
26750;SDS011;14345;48.272;25.926;2023-09-19T00:59:42;10.82;;;4.15;;
26750;SDS011;14345;48.272;25.926;2023-09-19T01:02:08;9.82;;;5.20;;
26750;SDS011;14345;48.272;25.926;2023-09-19T01:04:35;6.68;;;4.50;;
26750;SDS011;14345;48.272;25.926;2023-09-19T01:07:02;9.50;;;4.38;;
26750;SDS011;14345;48.272;25.926;2023-09-19T01:09:28;6.55;;;4.57;;
26750;SDS011;14345;48.272;25.926;2023-09-19T01:11:56;7.05;;;5.38;;
26750;SDS011;14345;48.272;25.926;2023-09-19T01:14:38;18.35;;;12.57;;
26750;SDS011;14345;48.272;25.926;2023-09-19T01:17:14;12.90;;;8.95;;
26750;SDS011;14345;48.272;25.926;2023-09-19T01:30:24;5.57;;;4.57;;
26750;SDS011;14345;48.272;25.926;2023-09-19T01:32:54;6.28;;;4.30;;
26750;SDS011;14345;48.272;25.926;2023-09-19T01:35:20;6.18;;;4.30;;
26750;SDS011;14345;48.272;25.926;2023-09-19T01:37:46;8.07;;;4.80;;
26750;SDS011;14345;48.272;25.926;2023-09-19T01:40:12;6.47;;;4.47;;
26750;SDS011;14345;48.272;25.926;2023-09-19T01:45:31;5.82;;;4.25;;
26750;SDS011;14345;48.272;25.926;2023-09-19T01:48:05;7.00;;;4.40;;
26750;SDS011;14345;48.272;25.926;2023-09-19T01:50:46;4.78;;;3.90;;
26750;SDS011;14345;48.272;25.926;2023-09-19T01:53:33;8.65;;;4.35;;
26750;SDS011;14345;48.272;25.926;2023-09-19T01:56:00;6.70;;;4.10;;
26750;SDS011;14345;48.272;25.926;2023-09-19T01:58:34;5.60;;;4.50;;
26750;SDS011;14345;48.272;25.926;2023-09-19T02:01:01;8.02;;;4.10;;
26750;SDS011;14345;48.272;25.926;2023-09-19T02:03:30;8.88;;;4.80;;
26750;SDS011;14345;48.272;25.926;2023-09-19T02:05:57;6.68;;;4.10;;
26750;SDS011;14345;48.272;25.926;2023-09-19T02:08:23;9.15;;;4.53;;
26750;SDS011;14345;48.272;25.926;2023-09-19T02:10:49;6.55;;;4.32;;
26750;SDS011;14345;48.272;25.926;2023-09-19T02:13:16;6.05;;;4.30;;
26750;SDS011;14345;48.272;25.926;2023-09-19T02:15:42;6.03;;;4.43;;
26750;SDS011;14345;48.272;25.926;2023-09-19T02:18:17;5.28;;;4.10;;
26750;SDS011;14345;48.272;25.926;2023-09-19T02:20:43;7.00;;;4.30;;
26750;SDS011;14345;48.272;25.926;2023-09-19T02:23:10;10.23;;;4.57;;
26750;SDS011;14345;48.272;25.926;2023-09-19T02:25:36;6.00;;;4.50;;
26750;SDS011;14345;48.272;25.926;2023-09-19T02:28:04;6.28;;;4.40;;
26750;SDS011;14345;48.272;25.926;2023-09-19T02:30:30;7.35;;;4.05;;
26750;SDS011;14345;48.272;25.926;2023-09-19T02:32:56;4.95;;;4.28;;
26750;SDS011;14345;48.272;25.926;2023-09-19T02:35:22;5.55;;;3.78;;
26750;SDS011;14345;48.272;25.926;2023-09-19T02:37:51;6.53;;;4.68;;
26750;SDS011;14345;48.272;25.926;2023-09-19T02:40:17;5.70;;;4.38;;
26750;SDS011;14345;48.272;25.926;2023-09-19T02:45:16;7.57;;;4.57;;
26750;SDS011;14345;48.272;25.926;2023-09-19T02:47:43;10.93;;;4.93;;
26750;SDS011;14345;48.272;25.926;2023-09-19T02:50:09;7.68;;;4.57;;
26750;SDS011;14345;48.272;25.926;2023-09-19T02:52:36;7.85;;;5.03;;
26750;SDS011;14345;48.272;25.926;2023-09-19T02:55:02;6.07;;;4.93;;
26750;SDS011;14345;48.272;25.926;2023-09-19T02:57:30;6.70;;;4.63;;
26750;SDS011;14345;48.272;25.926;2023-09-19T02:59:58;7.55;;;4.65;;
26750;SDS011;14345;48.272;25.926;2023-09-19T03:02:26;9.05;;;4.68;;
26750;SDS011;14345;48.272;25.926;2023-09-19T03:04:53;8.13;;;5.13;;
26750;SDS011;14345;48.272;25.926;2023-09-19T03:07:19;14.25;;;10.45;;
26750;SDS011;14345;48.272;25.926;2023-09-19T03:09:45;16.50;;;11.73;;
26750;SDS011;14345;48.272;25.926;2023-09-19T03:12:11;11.73;;;8.70;;
26750;SDS011;14345;48.272;25.926;2023-09-19T03:14:40;11.15;;;7.25;;
26750;SDS011;14345;48.272;25.926;2023-09-19T03:17:06;6.65;;;5.57;;
26750;SDS011;14345;48.272;25.926;2023-09-19T03:19:34;7.25;;;5.38;;
26750;SDS011;14345;48.272;25.926;2023-09-19T03:22:00;9.43;;;5.10;;
26750;SDS011;14345;48.272;25.926;2023-09-19T03:24:27;6.47;;;4.72;;
26750;SDS011;14345;48.272;25.926;2023-09-19T03:26:54;6.95;;;5.10;;
26750;SDS011;14345;48.272;25.926;2023-09-19T03:29:20;10.55;;;6.40;;
26750;SDS011;14345;48.272;25.926;2023-09-19T03:31:46;12.95;;;8.07;;
26750;SDS011;14345;48.272;25.926;2023-09-19T03:34:12;9.85;;;6.40;;
26750;SDS011;14345;48.272;25.926;2023-09-19T03:36:38;11.63;;;7.13;;
26750;SDS011;14345;48.272;25.926;2023-09-19T03:39:05;10.27;;;7.05;;
26750;SDS011;14345;48.272;25.926;2023-09-19T03:41:32;15.68;;;9.98;;
26750;SDS011;14345;48.272;25.926;2023-09-19T03:44:01;13.73;;;10.45;;
26750;SDS011;14345;48.272;25.926;2023-09-19T03:46:28;12.52;;;9.48;;
26750;SDS011;14345;48.272;25.926;2023-09-19T03:48:55;12.30;;;8.13;;
26750;SDS011;14345;48.272;25.926;2023-09-19T03:51:21;9.55;;;7.32;;
26750;SDS011;14345;48.272;25.926;2023-09-19T03:53:47;11.68;;;7.05;;
26750;SDS011;14345;48.272;25.926;2023-09-19T03:56:15;10.27;;;6.35;;
26750;SDS011;14345;48.272;25.926;2023-09-19T03:58:41;10.32;;;6.30;;
26750;SDS011;14345;48.272;25.926;2023-09-19T04:01:07;10.07;;;6.00;;
26750;SDS011;14345;48.272;25.926;2023-09-19T04:03:33;7.85;;;6.00;;
26750;SDS011;14345;48.272;25.926;2023-09-19T04:06:10;8.27;;;6.00;;
26750;SDS011;14345;48.272;25.926;2023-09-19T04:08:36;9.73;;;6.18;;
26750;SDS011;14345;48.272;25.926;2023-09-19T04:11:03;7.22;;;6.18;;
26750;SDS011;14345;48.272;25.926;2023-09-19T04:13:29;8.18;;;5.57;;
26750;SDS011;14345;48.272;25.926;2023-09-19T04:15:55;8.18;;;5.75;;
26750;SDS011;14345;48.272;25.926;2023-09-19T04:18:21;7.18;;;5.45;;
26750;SDS011;14345;48.272;25.926;2023-09-19T04:20:49;7.15;;;5.20;;
26750;SDS011;14345;48.272;25.926;2023-09-19T04:23:15;10.75;;;6.00;;
26750;SDS011;14345;48.272;25.926;2023-09-19T04:25:42;14.18;;;9.95;;
26750;SDS011;14345;48.272;25.926;2023-09-19T04:28:08;18.90;;;15.02;;
26750;SDS011;14345;48.272;25.926;2023-09-19T04:30:36;20.15;;;15.38;;
26750;SDS011;14345;48.272;25.926;2023-09-19T04:33:02;17.33;;;13.52;;
26750;SDS011;14345;48.272;25.926;2023-09-19T04:35:28;16.52;;;11.50;;
26750;SDS011;14345;48.272;25.926;2023-09-19T04:37:57;12.68;;;9.40;;
26750;SDS011;14345;48.272;25.926;2023-09-19T04:40:23;14.57;;;8.98;;
26750;SDS011;14345;48.272;25.926;2023-09-19T04:42:54;10.82;;;7.80;;
26750;SDS011;14345;48.272;25.926;2023-09-19T04:45:27;13.75;;;7.13;;
26750;SDS011;14345;48.272;25.926;2023-09-19T04:47:54;8.82;;;5.97;;
26750;SDS011;14345;48.272;25.926;2023-09-19T04:50:21;7.53;;;5.65;;
26750;SDS011;14345;48.272;25.926;2023-09-19T04:52:51;11.50;;;5.75;;
26750;SDS011;14345;48.272;25.926;2023-09-19T04:55:17;9.30;;;5.70;;
26750;SDS011;14345;48.272;25.926;2023-09-19T04:57:47;8.25;;;5.32;;
26750;SDS011;14345;48.272;25.926;2023-09-19T05:00:14;10.98;;;5.55;;
26750;SDS011;14345;48.272;25.926;2023-09-19T05:02:41;7.97;;;5.72;;
26750;SDS011;14345;48.272;25.926;2023-09-19T05:05:08;7.93;;;5.50;;
26750;SDS011;14345;48.272;25.926;2023-09-19T05:07:39;10.90;;;5.97;;
26750;SDS011;14345;48.272;25.926;2023-09-19T05:10:06;9.82;;;5.65;;
26750;SDS011;14345;48.272;25.926;2023-09-19T05:12:35;11.32;;;5.50;;
26750;SDS011;14345;48.272;25.926;2023-09-19T05:15:05;14.93;;;10.82;;
26750;SDS011;14345;48.272;25.926;2023-09-19T05:17:32;15.70;;;11.27;;
26750;SDS011;14345;48.272;25.926;2023-09-19T05:19:58;14.23;;;8.38;;
26750;SDS011;14345;48.272;25.926;2023-09-19T05:22:30;10.68;;;7.13;;
26750;SDS011;14345;48.272;25.926;2023-09-19T05:24:57;10.10;;;6.75;;
26750;SDS011;14345;48.272;25.926;2023-09-19T05:27:24;10.70;;;6.80;;
26750;SDS011;14345;48.272;25.926;2023-09-19T05:29:50;8.65;;;6.45;;
26750;SDS011;14345;48.272;25.926;2023-09-19T05:32:18;8.88;;;6.07;;
26750;SDS011;14345;48.272;25.926;2023-09-19T05:34:44;9.27;;;5.90;;
26750;SDS011;14345;48.272;25.926;2023-09-19T05:37:12;11.32;;;5.68;;
26750;SDS011;14345;48.272;25.926;2023-09-19T05:39:38;9.65;;;5.22;;
26750;SDS011;14345;48.272;25.926;2023-09-19T05:42:04;7.15;;;5.40;;
26750;SDS011;14345;48.272;25.926;2023-09-19T05:44:30;7.32;;;6.03;;
26750;SDS011;14345;48.272;25.926;2023-09-19T05:46:58;10.50;;;5.97;;
26750;SDS011;14345;48.272;25.926;2023-09-19T05:49:24;8.70;;;4.90;;
26750;SDS011;14345;48.272;25.926;2023-09-19T05:51:50;7.88;;;5.30;;
26750;SDS011;14345;48.272;25.926;2023-09-19T05:54:19;6.43;;;4.90;;
26750;SDS011;14345;48.272;25.926;2023-09-19T05:56:45;8.40;;;5.30;;
26750;SDS011;14345;48.272;25.926;2023-09-19T05:59:12;8.20;;;5.60;;
26750;SDS011;14345;48.272;25.926;2023-09-19T06:01:41;10.43;;;4.97;;
26750;SDS011;14345;48.272;25.926;2023-09-19T06:04:07;10.95;;;5.20;;
26750;SDS011;14345;48.272;25.926;2023-09-19T06:06:33;9.85;;;5.32;;
26750;SDS011;14345;48.272;25.926;2023-09-19T06:09:03;8.90;;;5.18;;
26750;SDS011;14345;48.272;25.926;2023-09-19T06:11:34;11.40;;;5.05;;
26750;SDS011;14345;48.272;25.926;2023-09-19T06:14:00;9.90;;;4.93;;
26750;SDS011;14345;48.272;25.926;2023-09-19T06:16:27;6.75;;;4.45;;
26750;SDS011;14345;48.272;25.926;2023-09-19T06:18:54;6.72;;;4.57;;
26750;SDS011;14345;48.272;25.926;2023-09-19T06:21:21;7.70;;;4.80;;
26750;SDS011;14345;48.272;25.926;2023-09-19T06:23:47;14.95;;;5.10;;
26750;SDS011;14345;48.272;25.926;2023-09-19T06:26:13;11.75;;;4.53;;
26750;SDS011;14345;48.272;25.926;2023-09-19T06:28:39;8.68;;;5.10;;
26750;SDS011;14345;48.272;25.926;2023-09-19T06:31:07;8.10;;;4.72;;
26750;SDS011;14345;48.272;25.926;2023-09-19T06:33:35;6.80;;;4.38;;
26750;SDS011;14345;48.272;25.926;2023-09-19T06:36:07;9.70;;;4.97;;
26750;SDS011;14345;48.272;25.926;2023-09-19T06:38:33;15.65;;;5.28;;
26750;SDS011;14345;48.272;25.926;2023-09-19T06:41:01;8.43;;;5.22;;
26750;SDS011;14345;48.272;25.926;2023-09-19T06:43:29;8.85;;;5.20;;
26750;SDS011;14345;48.272;25.926;2023-09-19T06:45:56;9.55;;;5.50;;
26750;SDS011;14345;48.272;25.926;2023-09-19T06:48:22;8.45;;;5.85;;
26750;SDS011;14345;48.272;25.926;2023-09-19T06:50:50;10.45;;;6.07;;
26750;SDS011;14345;48.272;25.926;2023-09-19T06:53:16;12.25;;;6.32;;
26750;SDS011;14345;48.272;25.926;2023-09-19T06:55:42;10.52;;;6.03;;
26750;SDS011;14345;48.272;25.926;2023-09-19T06:58:09;8.48;;;6.05;;
26750;SDS011;14345;48.272;25.926;2023-09-19T07:00:35;10.35;;;5.90;;
26750;SDS011;14345;48.272;25.926;2023-09-19T07:08:02;11.60;;;5.47;;
26750;SDS011;14345;48.272;25.926;2023-09-19T07:10:29;8.63;;;5.15;;
26750;SDS011;14345;48.272;25.926;2023-09-19T07:13:02;9.18;;;5.07;;
26750;SDS011;14345;48.272;25.926;2023-09-19T07:15:30;11.15;;;5.40;;
26750;SDS011;14345;48.272;25.926;2023-09-19T07:17:58;8.32;;;5.38;;
26750;SDS011;14345;48.272;25.926;2023-09-19T07:20:25;11.35;;;5.97;;
26750;SDS011;14345;48.272;25.926;2023-09-19T07:22:52;14.20;;;6.15;;
26750;SDS011;14345;48.272;25.926;2023-09-19T07:25:24;8.98;;;6.05;;
26750;SDS011;14345;48.272;25.926;2023-09-19T07:27:50;9.02;;;6.20;;
26750;SDS011;14345;48.272;25.926;2023-09-19T07:30:16;10.10;;;6.60;;
26750;SDS011;14345;48.272;25.926;2023-09-19T07:32:42;11.52;;;6.97;;
26750;SDS011;14345;48.272;25.926;2023-09-19T07:35:08;11.65;;;6.38;;
26750;SDS011;14345;48.272;25.926;2023-09-19T07:37:34;9.57;;;6.32;;
26750;SDS011;14345;48.272;25.926;2023-09-19T07:40:01;11.25;;;6.28;;
26750;SDS011;14345;48.272;25.926;2023-09-19T07:42:32;7.13;;;5.18;;
26750;SDS011;14345;48.272;25.926;2023-09-19T07:44:58;9.95;;;5.80;;
26750;SDS011;14345;48.272;25.926;2023-09-19T07:47:25;10.07;;;5.88;;
26750;SDS011;14345;48.272;25.926;2023-09-19T07:49:52;9.20;;;6.22;;
26750;SDS011;14345;48.272;25.926;2023-09-19T07:52:19;11.93;;;6.68;;
26750;SDS011;14345;48.272;25.926;2023-09-19T07:54:47;9.20;;;6.07;;
26750;SDS011;14345;48.272;25.926;2023-09-19T07:57:14;10.32;;;6.32;;
26750;SDS011;14345;48.272;25.926;2023-09-19T07:59:40;7.80;;;5.55;;
26750;SDS011;14345;48.272;25.926;2023-09-19T08:02:07;11.32;;;5.78;;
26750;SDS011;14345;48.272;25.926;2023-09-19T08:04:34;11.52;;;5.85;;
26750;SDS011;14345;48.272;25.926;2023-09-19T08:07:01;11.60;;;5.72;;
26750;SDS011;14345;48.272;25.926;2023-09-19T08:09:29;8.50;;;6.22;;
26750;SDS011;14345;48.272;25.926;2023-09-19T08:11:58;10.20;;;6.40;;
26750;SDS011;14345;48.272;25.926;2023-09-19T08:14:27;10.07;;;5.70;;
26750;SDS011;14345;48.272;25.926;2023-09-19T08:16:57;10.27;;;6.20;;
26750;SDS011;14345;48.272;25.926;2023-09-19T08:19:24;9.50;;;6.15;;
26750;SDS011;14345;48.272;25.926;2023-09-19T08:21:54;7.65;;;5.30;;
26750;SDS011;14345;48.272;25.926;2023-09-19T08:24:20;10.45;;;6.15;;
26750;SDS011;14345;48.272;25.926;2023-09-19T08:26:46;7.15;;;5.68;;
26750;SDS011;14345;48.272;25.926;2023-09-19T08:29:13;9.02;;;6.22;;
26750;SDS011;14345;48.272;25.926;2023-09-19T08:31:39;11.45;;;6.18;;
26750;SDS011;14345;48.272;25.926;2023-09-19T08:34:05;10.10;;;5.95;;
26750;SDS011;14345;48.272;25.926;2023-09-19T08:36:31;9.32;;;6.18;;
26750;SDS011;14345;48.272;25.926;2023-09-19T08:38:57;13.43;;;6.20;;
26750;SDS011;14345;48.272;25.926;2023-09-19T08:41:23;9.82;;;6.43;;
26750;SDS011;14345;48.272;25.926;2023-09-19T08:43:49;9.82;;;6.82;;
26750;SDS011;14345;48.272;25.926;2023-09-19T08:46:16;10.10;;;5.90;;
26750;SDS011;14345;48.272;25.926;2023-09-19T08:48:45;10.52;;;7.13;;
26750;SDS011;14345;48.272;25.926;2023-09-19T08:51:39;13.15;;;8.70;;
26750;SDS011;14345;48.272;25.926;2023-09-19T08:54:03;11.65;;;8.43;;
26750;SDS011;14345;48.272;25.926;2023-09-19T08:56:32;11.77;;;7.88;;
26750;SDS011;14345;48.272;25.926;2023-09-19T08:59:04;10.10;;;7.78;;
26750;SDS011;14345;48.272;25.926;2023-09-19T09:01:32;12.43;;;8.00;;
26750;SDS011;14345;48.272;25.926;2023-09-19T09:03:59;13.13;;;8.07;;
26750;SDS011;14345;48.272;25.926;2023-09-19T09:06:26;13.38;;;8.07;;
26750;SDS011;14345;48.272;25.926;2023-09-19T09:08:53;16.60;;;7.45;;
26750;SDS011;14345;48.272;25.926;2023-09-19T09:11:19;13.60;;;8.50;;
26750;SDS011;14345;48.272;25.926;2023-09-19T09:13:47;15.85;;;9.13;;
26750;SDS011;14345;48.272;25.926;2023-09-19T09:16:13;14.02;;;9.05;;
26750;SDS011;14345;48.272;25.926;2023-09-19T09:18:43;12.93;;;9.13;;
26750;SDS011;14345;48.272;25.926;2023-09-19T09:21:10;13.23;;;8.98;;
26750;SDS011;14345;48.272;25.926;2023-09-19T09:23:36;15.25;;;8.88;;
26750;SDS011;14345;48.272;25.926;2023-09-19T09:26:03;13.88;;;7.97;;
26750;SDS011;14345;48.272;25.926;2023-09-19T09:28:31;14.25;;;8.25;;
26750;SDS011;14345;48.272;25.926;2023-09-19T09:30:58;18.20;;;8.48;;
26750;SDS011;14345;48.272;25.926;2023-09-19T09:33:24;13.73;;;7.72;;
26750;SDS011;14345;48.272;25.926;2023-09-19T09:35:54;14.32;;;7.88;;
26750;SDS011;14345;48.272;25.926;2023-09-19T09:38:29;15.30;;;8.05;;
26750;SDS011;14345;48.272;25.926;2023-09-19T09:40:59;18.77;;;8.18;;
26750;SDS011;14345;48.272;25.926;2023-09-19T09:43:35;15.38;;;7.55;;
26750;SDS011;14345;48.272;25.926;2023-09-19T09:48:58;16.17;;;9.05;;
26750;SDS011;14345;48.272;25.926;2023-09-19T09:51:45;17.50;;;8.40;;
26750;SDS011;14345;48.272;25.926;2023-09-19T09:54:22;20.83;;;9.88;;
26750;SDS011;14345;48.272;25.926;2023-09-19T09:56:58;15.50;;;8.95;;
26750;SDS011;14345;48.272;25.926;2023-09-19T10:02:37;12.80;;;8.00;;
26750;SDS011;14345;48.272;25.926;2023-09-19T10:05:15;12.50;;;8.32;;
26750;SDS011;14345;48.272;25.926;2023-09-19T10:07:41;16.35;;;11.15;;
26750;SDS011;14345;48.272;25.926;2023-09-19T10:10:14;22.25;;;12.50;;
26750;SDS011;14345;48.272;25.926;2023-09-19T10:12:47;17.80;;;10.50;;
26750;SDS011;14345;48.272;25.926;2023-09-19T10:15:17;16.52;;;10.07;;
26750;SDS011;14345;48.272;25.926;2023-09-19T10:17:50;14.90;;;9.18;;
26750;SDS011;14345;48.272;25.926;2023-09-19T10:20:21;15.57;;;9.07;;
26750;SDS011;14345;48.272;25.926;2023-09-19T10:22:57;15.85;;;9.57;;
26750;SDS011;14345;48.272;25.926;2023-09-19T10:25:26;15.90;;;9.90;;
26750;SDS011;14345;48.272;25.926;2023-09-19T10:28:00;19.02;;;10.20;;
26750;SDS011;14345;48.272;25.926;2023-09-19T10:30:31;19.70;;;10.65;;
26750;SDS011;14345;48.272;25.926;2023-09-19T10:33:03;20.45;;;11.70;;
26750;SDS011;14345;48.272;25.926;2023-09-19T10:35:30;23.17;;;12.63;;
26750;SDS011;14345;48.272;25.926;2023-09-19T10:37:59;22.58;;;13.65;;
26750;SDS011;14345;48.272;25.926;2023-09-19T10:40:29;21.42;;;12.95;;
26750;SDS011;14345;48.272;25.926;2023-09-19T10:43:00;23.00;;;13.93;;
26750;SDS011;14345;48.272;25.926;2023-09-19T10:45:28;19.00;;;12.45;;
26750;SDS011;14345;48.272;25.926;2023-09-19T10:47:54;20.38;;;12.98;;
26750;SDS011;14345;48.272;25.926;2023-09-19T10:50:21;23.67;;;13.02;;
26750;SDS011;14345;48.272;25.926;2023-09-19T10:52:47;23.90;;;13.15;;
26750;SDS011;14345;48.272;25.926;2023-09-19T10:55:17;20.33;;;12.55;;
26750;SDS011;14345;48.272;25.926;2023-09-19T10:57:46;23.38;;;12.15;;
26750;SDS011;14345;48.272;25.926;2023-09-19T11:00:13;22.75;;;14.18;;
26750;SDS011;14345;48.272;25.926;2023-09-19T11:05:34;20.30;;;13.35;;
26750;SDS011;14345;48.272;25.926;2023-09-19T11:08:00;22.75;;;12.90;;
26750;SDS011;14345;48.272;25.926;2023-09-19T11:26:40;21.40;;;12.93;;
26750;SDS011;14345;48.272;25.926;2023-09-19T11:29:25;20.40;;;12.63;;
26750;SDS011;14345;48.272;25.926;2023-09-19T11:31:51;19.25;;;13.10;;
26750;SDS011;14345;48.272;25.926;2023-09-19T11:42:44;21.15;;;12.10;;
26750;SDS011;14345;48.272;25.926;2023-09-19T11:47:55;18.13;;;11.20;;
26750;SDS011;14345;48.272;25.926;2023-09-19T11:50:23;17.42;;;11.00;;
26750;SDS011;14345;48.272;25.926;2023-09-19T11:52:50;18.77;;;11.27;;
26750;SDS011;14345;48.272;25.926;2023-09-19T11:55:17;19.60;;;10.70;;
26750;SDS011;14345;48.272;25.926;2023-09-19T11:57:46;18.73;;;10.77;;
26750;SDS011;14345;48.272;25.926;2023-09-19T12:00:19;16.42;;;10.45;;
26750;SDS011;14345;48.272;25.926;2023-09-19T12:02:46;16.55;;;10.48;;
26750;SDS011;14345;48.272;25.926;2023-09-19T12:05:13;19.92;;;10.85;;
26750;SDS011;14345;48.272;25.926;2023-09-19T12:07:43;19.85;;;11.35;;
26750;SDS011;14345;48.272;25.926;2023-09-19T12:10:11;17.95;;;10.43;;
26750;SDS011;14345;48.272;25.926;2023-09-19T12:12:42;19.42;;;11.55;;
26750;SDS011;14345;48.272;25.926;2023-09-19T12:15:14;18.92;;;10.77;;
26750;SDS011;14345;48.272;25.926;2023-09-19T12:17:40;18.73;;;11.13;;
26750;SDS011;14345;48.272;25.926;2023-09-19T12:20:08;17.85;;;11.40;;
26750;SDS011;14345;48.272;25.926;2023-09-19T12:22:41;18.75;;;11.48;;
26750;SDS011;14345;48.272;25.926;2023-09-19T12:25:08;18.75;;;11.18;;
26750;SDS011;14345;48.272;25.926;2023-09-19T12:27:42;14.18;;;10.40;;
26750;SDS011;14345;48.272;25.926;2023-09-19T12:30:09;17.88;;;10.98;;
26750;SDS011;14345;48.272;25.926;2023-09-19T12:32:35;18.67;;;11.13;;
26750;SDS011;14345;48.272;25.926;2023-09-19T12:35:02;16.10;;;10.70;;
26750;SDS011;14345;48.272;25.926;2023-09-19T12:37:32;16.00;;;10.43;;
26750;SDS011;14345;48.272;25.926;2023-09-19T12:40:08;14.00;;;10.20;;
26750;SDS011;14345;48.272;25.926;2023-09-19T12:42:43;17.70;;;10.48;;
26750;SDS011;14345;48.272;25.926;2023-09-19T12:45:09;14.07;;;9.68;;
26750;SDS011;14345;48.272;25.926;2023-09-19T12:47:38;12.77;;;9.25;;
26750;SDS011;14345;48.272;25.926;2023-09-19T12:50:12;17.80;;;10.57;;
26750;SDS011;14345;48.272;25.926;2023-09-19T12:52:39;13.05;;;9.23;;
26750;SDS011;14345;48.272;25.926;2023-09-19T12:55:05;16.58;;;10.13;;
26750;SDS011;14345;48.272;25.926;2023-09-19T12:57:36;16.17;;;10.07;;
26750;SDS011;14345;48.272;25.926;2023-09-19T13:00:04;12.85;;;9.00;;
26750;SDS011;14345;48.272;25.926;2023-09-19T13:02:36;14.90;;;9.02;;
26750;SDS011;14345;48.272;25.926;2023-09-19T13:05:03;13.32;;;8.93;;
26750;SDS011;14345;48.272;25.926;2023-09-19T13:07:41;13.85;;;9.13;;
26750;SDS011;14345;48.272;25.926;2023-09-19T13:10:09;13.63;;;8.65;;
26750;SDS011;14345;48.272;25.926;2023-09-19T13:12:35;14.57;;;8.90;;
26750;SDS011;14345;48.272;25.926;2023-09-19T13:15:09;13.38;;;8.30;;
26750;SDS011;14345;48.272;25.926;2023-09-19T13:17:48;13.38;;;8.60;;
26750;SDS011;14345;48.272;25.926;2023-09-19T13:20:24;14.25;;;9.15;;
26750;SDS011;14345;48.272;25.926;2023-09-19T13:22:52;16.42;;;9.15;;
26750;SDS011;14345;48.272;25.926;2023-09-19T13:25:20;14.45;;;7.70;;
26750;SDS011;14345;48.272;25.926;2023-09-19T13:30:13;14.18;;;8.43;;
26750;SDS011;14345;48.272;25.926;2023-09-19T13:32:40;15.38;;;8.15;;
26750;SDS011;14345;48.272;25.926;2023-09-19T13:35:07;10.60;;;7.50;;
26750;SDS011;14345;48.272;25.926;2023-09-19T13:37:34;10.50;;;7.03;;
26750;SDS011;14345;48.272;25.926;2023-09-19T13:40:06;12.85;;;7.07;;
26750;SDS011;14345;48.272;25.926;2023-09-19T13:42:33;10.85;;;7.25;;
26750;SDS011;14345;48.272;25.926;2023-09-19T13:45:01;10.32;;;7.18;;
26750;SDS011;14345;48.272;25.926;2023-09-19T13:47:27;18.50;;;7.65;;
26750;SDS011;14345;48.272;25.926;2023-09-19T13:49:53;22.77;;;8.05;;
26750;SDS011;14345;48.272;25.926;2023-09-19T13:52:20;13.07;;;7.10;;
26750;SDS011;14345;48.272;25.926;2023-09-19T13:54:48;11.80;;;7.35;;
26750;SDS011;14345;48.272;25.926;2023-09-19T13:57:14;10.70;;;7.07;;
26750;SDS011;14345;48.272;25.926;2023-09-19T13:59:40;10.23;;;6.93;;
26750;SDS011;14345;48.272;25.926;2023-09-19T14:02:06;9.73;;;6.75;;
26750;SDS011;14345;48.272;25.926;2023-09-19T14:04:32;10.15;;;6.65;;
26750;SDS011;14345;48.272;25.926;2023-09-19T14:06:59;12.63;;;7.10;;
26750;SDS011;14345;48.272;25.926;2023-09-19T14:09:26;15.50;;;6.85;;
26750;SDS011;14345;48.272;25.926;2023-09-19T14:11:52;9.52;;;6.55;;
26750;SDS011;14345;48.272;25.926;2023-09-19T14:14:21;10.25;;;6.88;;
26750;SDS011;14345;48.272;25.926;2023-09-19T14:16:47;8.73;;;6.18;;
26750;SDS011;14345;48.272;25.926;2023-09-19T14:19:13;10.68;;;7.22;;
26750;SDS011;14345;48.272;25.926;2023-09-19T14:21:41;8.32;;;6.53;;
26750;SDS011;14345;48.272;25.926;2023-09-19T14:24:07;7.57;;;5.78;;
26750;SDS011;14345;48.272;25.926;2023-09-19T14:26:38;7.63;;;6.03;;
26750;SDS011;14345;48.272;25.926;2023-09-19T14:29:04;9.65;;;6.28;;
26750;SDS011;14345;48.272;25.926;2023-09-19T14:31:32;8.00;;;5.72;;
26750;SDS011;14345;48.272;25.926;2023-09-19T14:33:59;8.55;;;5.45;;
26750;SDS011;14345;48.272;25.926;2023-09-19T14:36:25;9.48;;;5.55;;
26750;SDS011;14345;48.272;25.926;2023-09-19T14:38:55;7.32;;;5.60;;
26750;SDS011;14345;48.272;25.926;2023-09-19T14:41:24;8.15;;;5.70;;
26750;SDS011;14345;48.272;25.926;2023-09-19T14:43:53;7.78;;;5.60;;
26750;SDS011;14345;48.272;25.926;2023-09-19T14:46:22;7.00;;;5.40;;
26750;SDS011;14345;48.272;25.926;2023-09-19T14:48:52;9.35;;;5.68;;
26750;SDS011;14345;48.272;25.926;2023-09-19T14:51:18;11.75;;;6.07;;
26750;SDS011;14345;48.272;25.926;2023-09-19T14:53:45;9.93;;;6.00;;
26750;SDS011;14345;48.272;25.926;2023-09-19T14:56:12;8.02;;;5.88;;
26750;SDS011;14345;48.272;25.926;2023-09-19T14:58:41;7.25;;;5.22;;
26750;SDS011;14345;48.272;25.926;2023-09-19T15:01:08;8.43;;;5.70;;
26750;SDS011;14345;48.272;25.926;2023-09-19T15:03:35;10.85;;;6.20;;
26750;SDS011;14345;48.272;25.926;2023-09-19T15:06:02;9.90;;;6.00;;
26750;SDS011;14345;48.272;25.926;2023-09-19T15:08:30;9.48;;;5.80;;
26750;SDS011;14345;48.272;25.926;2023-09-19T15:10:56;8.63;;;5.63;;
26750;SDS011;14345;48.272;25.926;2023-09-19T15:13:23;8.25;;;6.10;;
26750;SDS011;14345;48.272;25.926;2023-09-19T15:15:57;9.27;;;5.75;;
26750;SDS011;14345;48.272;25.926;2023-09-19T15:18:23;8.32;;;6.10;;
26750;SDS011;14345;48.272;25.926;2023-09-19T15:20:49;7.78;;;5.80;;
26750;SDS011;14345;48.272;25.926;2023-09-19T15:23:15;9.35;;;6.32;;
26750;SDS011;14345;48.272;25.926;2023-09-19T15:25:50;8.48;;;5.70;;
26750;SDS011;14345;48.272;25.926;2023-09-19T15:28:16;11.82;;;6.85;;
26750;SDS011;14345;48.272;25.926;2023-09-19T15:30:42;11.95;;;7.13;;